sensor_id;sensor_type;location;lat;lon;timestamp;P1;durP1;ratioP1;P2;durP2;ratioP2
14722;SDS011;7452;55.594;12.986;2022-07-15T00:00:07;6.20;;;1.97;;
14722;SDS011;7452;55.594;12.986;2022-07-15T00:02:36;5.10;;;1.50;;
14722;SDS011;7452;55.594;12.986;2022-07-15T00:05:03;7.37;;;1.40;;
14722;SDS011;7452;55.594;12.986;2022-07-15T00:07:31;8.50;;;1.60;;
14722;SDS011;7452;55.594;12.986;2022-07-15T00:09:58;7.00;;;1.87;;
14722;SDS011;7452;55.594;12.986;2022-07-15T00:12:42;8.03;;;1.50;;
14722;SDS011;7452;55.594;12.986;2022-07-15T00:15:10;9.23;;;2.17;;
14722;SDS011;7452;55.594;12.986;2022-07-15T00:17:37;6.27;;;1.80;;
14722;SDS011;7452;55.594;12.986;2022-07-15T00:20:05;8.83;;;1.93;;
14722;SDS011;7452;55.594;12.986;2022-07-15T00:22:33;8.17;;;1.87;;
14722;SDS011;7452;55.594;12.986;2022-07-15T00:25:00;5.93;;;1.60;;
14722;SDS011;7452;55.594;12.986;2022-07-15T00:27:27;9.00;;;2.23;;
14722;SDS011;7452;55.594;12.986;2022-07-15T00:29:55;8.77;;;2.03;;
14722;SDS011;7452;55.594;12.986;2022-07-15T00:32:22;9.10;;;1.80;;
14722;SDS011;7452;55.594;12.986;2022-07-15T00:34:49;6.87;;;1.87;;
14722;SDS011;7452;55.594;12.986;2022-07-15T00:37:17;8.00;;;1.60;;
14722;SDS011;7452;55.594;12.986;2022-07-15T00:39:44;6.93;;;1.60;;
14722;SDS011;7452;55.594;12.986;2022-07-15T00:42:12;5.27;;;1.53;;
14722;SDS011;7452;55.594;12.986;2022-07-15T00:45:01;7.00;;;1.47;;
14722;SDS011;7452;55.594;12.986;2022-07-15T00:47:28;6.20;;;1.60;;
14722;SDS011;7452;55.594;12.986;2022-07-15T00:49:55;9.10;;;1.90;;
14722;SDS011;7452;55.594;12.986;2022-07-15T00:52:22;7.30;;;1.77;;
14722;SDS011;7452;55.594;12.986;2022-07-15T00:54:52;8.77;;;1.90;;
14722;SDS011;7452;55.594;12.986;2022-07-15T00:57:24;4.60;;;1.87;;
14722;SDS011;7452;55.594;12.986;2022-07-15T00:59:52;5.83;;;1.60;;
14722;SDS011;7452;55.594;12.986;2022-07-15T01:02:22;9.37;;;1.70;;
14722;SDS011;7452;55.594;12.986;2022-07-15T01:04:49;9.37;;;2.00;;
14722;SDS011;7452;55.594;12.986;2022-07-15T01:07:18;7.57;;;1.90;;
14722;SDS011;7452;55.594;12.986;2022-07-15T01:09:45;7.37;;;2.20;;
14722;SDS011;7452;55.594;12.986;2022-07-15T01:12:12;6.60;;;1.80;;
14722;SDS011;7452;55.594;12.986;2022-07-15T01:14:39;7.10;;;1.87;;
14722;SDS011;7452;55.594;12.986;2022-07-15T01:17:08;10.47;;;2.27;;
14722;SDS011;7452;55.594;12.986;2022-07-15T01:19:37;9.87;;;2.23;;
14722;SDS011;7452;55.594;12.986;2022-07-15T01:22:06;6.03;;;1.90;;
14722;SDS011;7452;55.594;12.986;2022-07-15T01:24:33;8.37;;;1.83;;
14722;SDS011;7452;55.594;12.986;2022-07-15T01:27:01;11.03;;;1.87;;
14722;SDS011;7452;55.594;12.986;2022-07-15T01:29:28;7.63;;;2.43;;
14722;SDS011;7452;55.594;12.986;2022-07-15T01:31:55;8.33;;;2.10;;
14722;SDS011;7452;55.594;12.986;2022-07-15T01:34:22;9.37;;;2.03;;
14722;SDS011;7452;55.594;12.986;2022-07-15T01:36:49;9.37;;;1.97;;
14722;SDS011;7452;55.594;12.986;2022-07-15T01:39:18;6.00;;;1.70;;
14722;SDS011;7452;55.594;12.986;2022-07-15T01:41:44;8.37;;;2.27;;
14722;SDS011;7452;55.594;12.986;2022-07-15T01:44:11;6.90;;;1.53;;
14722;SDS011;7452;55.594;12.986;2022-07-15T01:46:39;7.30;;;1.97;;
14722;SDS011;7452;55.594;12.986;2022-07-15T01:49:06;8.57;;;2.07;;
14722;SDS011;7452;55.594;12.986;2022-07-15T01:51:51;8.00;;;1.93;;
14722;SDS011;7452;55.594;12.986;2022-07-15T01:54:21;7.40;;;1.93;;
14722;SDS011;7452;55.594;12.986;2022-07-15T01:56:48;10.33;;;1.80;;
14722;SDS011;7452;55.594;12.986;2022-07-15T01:59:15;6.47;;;1.60;;
14722;SDS011;7452;55.594;12.986;2022-07-15T02:01:42;4.90;;;1.50;;
14722;SDS011;7452;55.594;12.986;2022-07-15T02:04:10;9.23;;;2.20;;
14722;SDS011;7452;55.594;12.986;2022-07-15T02:06:38;7.77;;;2.20;;
14722;SDS011;7452;55.594;12.986;2022-07-15T02:09:05;12.10;;;2.03;;
14722;SDS011;7452;55.594;12.986;2022-07-15T02:11:34;7.57;;;1.67;;
14722;SDS011;7452;55.594;12.986;2022-07-15T02:14:01;6.87;;;1.80;;
14722;SDS011;7452;55.594;12.986;2022-07-15T02:16:28;5.47;;;1.80;;
14722;SDS011;7452;55.594;12.986;2022-07-15T02:18:55;9.77;;;1.90;;
14722;SDS011;7452;55.594;12.986;2022-07-15T02:21:23;8.87;;;2.10;;
14722;SDS011;7452;55.594;12.986;2022-07-15T02:23:51;7.57;;;1.77;;
14722;SDS011;7452;55.594;12.986;2022-07-15T02:26:18;9.87;;;2.00;;
14722;SDS011;7452;55.594;12.986;2022-07-15T02:28:47;8.40;;;2.17;;
14722;SDS011;7452;55.594;12.986;2022-07-15T02:31:14;7.80;;;2.13;;
14722;SDS011;7452;55.594;12.986;2022-07-15T02:33:41;9.23;;;2.07;;
14722;SDS011;7452;55.594;12.986;2022-07-15T02:36:08;9.97;;;1.80;;
14722;SDS011;7452;55.594;12.986;2022-07-15T02:38:35;9.37;;;1.90;;
14722;SDS011;7452;55.594;12.986;2022-07-15T02:41:02;9.33;;;2.07;;
14722;SDS011;7452;55.594;12.986;2022-07-15T02:43:29;9.27;;;2.17;;
14722;SDS011;7452;55.594;12.986;2022-07-15T02:45:57;7.87;;;2.13;;
14722;SDS011;7452;55.594;12.986;2022-07-15T02:48:24;8.07;;;1.93;;
14722;SDS011;7452;55.594;12.986;2022-07-15T02:50:51;8.93;;;2.43;;
14722;SDS011;7452;55.594;12.986;2022-07-15T02:53:18;8.67;;;1.97;;
14722;SDS011;7452;55.594;12.986;2022-07-15T02:55:46;7.97;;;1.97;;
14722;SDS011;7452;55.594;12.986;2022-07-15T02:58:14;6.77;;;1.80;;
14722;SDS011;7452;55.594;12.986;2022-07-15T03:00:41;7.57;;;2.17;;
14722;SDS011;7452;55.594;12.986;2022-07-15T03:03:09;6.50;;;1.80;;
14722;SDS011;7452;55.594;12.986;2022-07-15T03:05:36;9.10;;;1.97;;
14722;SDS011;7452;55.594;12.986;2022-07-15T03:08:03;8.17;;;1.90;;
14722;SDS011;7452;55.594;12.986;2022-07-15T03:10:31;10.20;;;2.10;;
14722;SDS011;7452;55.594;12.986;2022-07-15T03:12:58;8.97;;;2.10;;
14722;SDS011;7452;55.594;12.986;2022-07-15T03:15:25;8.03;;;2.23;;
14722;SDS011;7452;55.594;12.986;2022-07-15T03:17:52;7.23;;;2.13;;
14722;SDS011;7452;55.594;12.986;2022-07-15T03:20:20;10.03;;;2.20;;
14722;SDS011;7452;55.594;12.986;2022-07-15T03:22:47;8.67;;;1.80;;
14722;SDS011;7452;55.594;12.986;2022-07-15T03:25:14;7.53;;;1.93;;
14722;SDS011;7452;55.594;12.986;2022-07-15T03:27:41;12.80;;;2.40;;
14722;SDS011;7452;55.594;12.986;2022-07-15T03:30:08;6.97;;;2.13;;
14722;SDS011;7452;55.594;12.986;2022-07-15T03:32:35;6.80;;;1.90;;
14722;SDS011;7452;55.594;12.986;2022-07-15T03:35:02;9.07;;;2.27;;
14722;SDS011;7452;55.594;12.986;2022-07-15T03:37:31;10.53;;;2.53;;
14722;SDS011;7452;55.594;12.986;2022-07-15T03:39:59;7.53;;;1.97;;
14722;SDS011;7452;55.594;12.986;2022-07-15T03:42:26;8.50;;;2.43;;
14722;SDS011;7452;55.594;12.986;2022-07-15T03:44:53;10.53;;;2.40;;
14722;SDS011;7452;55.594;12.986;2022-07-15T03:47:20;11.00;;;2.30;;
14722;SDS011;7452;55.594;12.986;2022-07-15T03:49:47;11.43;;;2.17;;
14722;SDS011;7452;55.594;12.986;2022-07-15T03:52:14;8.70;;;2.03;;
14722;SDS011;7452;55.594;12.986;2022-07-15T03:54:42;10.70;;;1.97;;
14722;SDS011;7452;55.594;12.986;2022-07-15T03:57:09;9.50;;;1.93;;
14722;SDS011;7452;55.594;12.986;2022-07-15T03:59:36;7.43;;;1.93;;
14722;SDS011;7452;55.594;12.986;2022-07-15T04:02:03;6.70;;;1.83;;
14722;SDS011;7452;55.594;12.986;2022-07-15T04:04:30;10.63;;;2.03;;
14722;SDS011;7452;55.594;12.986;2022-07-15T04:06:57;9.70;;;2.33;;
14722;SDS011;7452;55.594;12.986;2022-07-15T04:09:24;8.27;;;2.27;;
14722;SDS011;7452;55.594;12.986;2022-07-15T04:11:52;6.10;;;1.77;;
14722;SDS011;7452;55.594;12.986;2022-07-15T04:14:19;9.27;;;2.53;;
14722;SDS011;7452;55.594;12.986;2022-07-15T04:16:47;11.93;;;2.40;;
14722;SDS011;7452;55.594;12.986;2022-07-15T04:19:14;10.87;;;2.33;;
14722;SDS011;7452;55.594;12.986;2022-07-15T04:21:41;8.93;;;1.93;;
14722;SDS011;7452;55.594;12.986;2022-07-15T04:24:08;9.90;;;1.97;;
14722;SDS011;7452;55.594;12.986;2022-07-15T04:26:35;9.10;;;2.37;;
14722;SDS011;7452;55.594;12.986;2022-07-15T04:29:03;10.27;;;2.60;;
14722;SDS011;7452;55.594;12.986;2022-07-15T04:31:30;10.83;;;2.23;;
14722;SDS011;7452;55.594;12.986;2022-07-15T04:33:57;10.93;;;2.60;;
14722;SDS011;7452;55.594;12.986;2022-07-15T04:36:24;11.60;;;2.40;;
14722;SDS011;7452;55.594;12.986;2022-07-15T04:38:51;11.23;;;2.63;;
14722;SDS011;7452;55.594;12.986;2022-07-15T04:41:18;9.77;;;2.30;;
14722;SDS011;7452;55.594;12.986;2022-07-15T04:43:45;9.87;;;2.10;;
14722;SDS011;7452;55.594;12.986;2022-07-15T04:46:13;9.97;;;2.53;;
14722;SDS011;7452;55.594;12.986;2022-07-15T04:48:40;13.13;;;2.40;;
14722;SDS011;7452;55.594;12.986;2022-07-15T04:51:24;7.53;;;2.17;;
14722;SDS011;7452;55.594;12.986;2022-07-15T04:53:51;9.67;;;2.77;;
14722;SDS011;7452;55.594;12.986;2022-07-15T04:56:18;13.47;;;2.40;;
14722;SDS011;7452;55.594;12.986;2022-07-15T04:58:45;12.13;;;2.63;;
14722;SDS011;7452;55.594;12.986;2022-07-15T05:01:13;8.70;;;2.50;;
14722;SDS011;7452;55.594;12.986;2022-07-15T05:03:40;11.90;;;2.67;;
14722;SDS011;7452;55.594;12.986;2022-07-15T05:06:07;11.33;;;2.63;;
14722;SDS011;7452;55.594;12.986;2022-07-15T05:08:34;13.40;;;2.97;;
14722;SDS011;7452;55.594;12.986;2022-07-15T05:11:01;14.13;;;2.87;;
14722;SDS011;7452;55.594;12.986;2022-07-15T05:13:28;12.00;;;2.10;;
14722;SDS011;7452;55.594;12.986;2022-07-15T05:15:55;12.17;;;2.43;;
14722;SDS011;7452;55.594;12.986;2022-07-15T05:18:23;6.53;;;2.00;;
14722;SDS011;7452;55.594;12.986;2022-07-15T05:20:51;11.30;;;2.30;;
14722;SDS011;7452;55.594;12.986;2022-07-15T05:23:18;8.60;;;2.30;;
14722;SDS011;7452;55.594;12.986;2022-07-15T05:25:45;13.50;;;2.80;;
14722;SDS011;7452;55.594;12.986;2022-07-15T05:28:12;11.73;;;2.30;;
14722;SDS011;7452;55.594;12.986;2022-07-15T05:30:39;16.23;;;3.07;;
14722;SDS011;7452;55.594;12.986;2022-07-15T05:33:06;8.07;;;2.30;;
14722;SDS011;7452;55.594;12.986;2022-07-15T05:35:34;11.70;;;2.53;;
14722;SDS011;7452;55.594;12.986;2022-07-15T05:38:01;9.10;;;2.70;;
14722;SDS011;7452;55.594;12.986;2022-07-15T05:40:29;12.87;;;2.83;;
14722;SDS011;7452;55.594;12.986;2022-07-15T05:42:56;9.47;;;2.33;;
14722;SDS011;7452;55.594;12.986;2022-07-15T05:45:23;14.00;;;2.80;;
14722;SDS011;7452;55.594;12.986;2022-07-15T05:47:50;15.77;;;2.60;;
14722;SDS011;7452;55.594;12.986;2022-07-15T05:50:18;13.93;;;3.00;;
14722;SDS011;7452;55.594;12.986;2022-07-15T05:52:47;11.47;;;2.83;;
14722;SDS011;7452;55.594;12.986;2022-07-15T05:55:14;13.17;;;2.87;;
14722;SDS011;7452;55.594;12.986;2022-07-15T05:57:41;11.50;;;2.40;;
14722;SDS011;7452;55.594;12.986;2022-07-15T06:00:08;13.97;;;3.17;;
14722;SDS011;7452;55.594;12.986;2022-07-15T06:02:36;8.50;;;2.20;;
14722;SDS011;7452;55.594;12.986;2022-07-15T06:05:03;10.33;;;2.43;;
14722;SDS011;7452;55.594;12.986;2022-07-15T06:07:30;14.43;;;2.70;;
14722;SDS011;7452;55.594;12.986;2022-07-15T06:09:59;10.03;;;2.23;;
14722;SDS011;7452;55.594;12.986;2022-07-15T06:12:26;10.50;;;2.60;;
14722;SDS011;7452;55.594;12.986;2022-07-15T06:14:53;11.73;;;2.70;;
14722;SDS011;7452;55.594;12.986;2022-07-15T06:17:20;9.37;;;2.57;;
14722;SDS011;7452;55.594;12.986;2022-07-15T06:19:47;12.53;;;2.40;;
14722;SDS011;7452;55.594;12.986;2022-07-15T06:22:14;10.07;;;2.90;;
14722;SDS011;7452;55.594;12.986;2022-07-15T06:24:41;11.43;;;2.80;;
14722;SDS011;7452;55.594;12.986;2022-07-15T06:27:09;6.63;;;2.00;;
14722;SDS011;7452;55.594;12.986;2022-07-15T06:29:36;10.60;;;2.27;;
14722;SDS011;7452;55.594;12.986;2022-07-15T06:32:04;10.17;;;2.10;;
14722;SDS011;7452;55.594;12.986;2022-07-15T06:34:32;9.43;;;2.67;;
14722;SDS011;7452;55.594;12.986;2022-07-15T06:36:59;8.40;;;2.37;;
14722;SDS011;7452;55.594;12.986;2022-07-15T06:39:26;9.10;;;2.40;;
14722;SDS011;7452;55.594;12.986;2022-07-15T06:41:53;9.97;;;2.40;;
14722;SDS011;7452;55.594;12.986;2022-07-15T06:44:21;10.30;;;2.40;;
14722;SDS011;7452;55.594;12.986;2022-07-15T06:46:48;10.93;;;2.47;;
14722;SDS011;7452;55.594;12.986;2022-07-15T06:49:15;14.30;;;2.63;;
14722;SDS011;7452;55.594;12.986;2022-07-15T06:51:42;9.47;;;2.67;;
14722;SDS011;7452;55.594;12.986;2022-07-15T06:54:09;13.97;;;2.57;;
14722;SDS011;7452;55.594;12.986;2022-07-15T06:56:36;10.57;;;2.13;;
14722;SDS011;7452;55.594;12.986;2022-07-15T06:59:04;10.77;;;2.03;;
14722;SDS011;7452;55.594;12.986;2022-07-15T07:01:32;12.50;;;2.83;;
14722;SDS011;7452;55.594;12.986;2022-07-15T07:03:59;10.73;;;2.80;;
14722;SDS011;7452;55.594;12.986;2022-07-15T07:06:26;11.03;;;2.70;;
14722;SDS011;7452;55.594;12.986;2022-07-15T07:08:53;7.83;;;2.50;;
14722;SDS011;7452;55.594;12.986;2022-07-15T07:11:20;13.50;;;2.60;;
14722;SDS011;7452;55.594;12.986;2022-07-15T07:13:47;11.27;;;2.77;;
14722;SDS011;7452;55.594;12.986;2022-07-15T07:16:15;5.13;;;2.17;;
14722;SDS011;7452;55.594;12.986;2022-07-15T07:18:43;9.87;;;2.30;;
14722;SDS011;7452;55.594;12.986;2022-07-15T07:21:12;14.60;;;2.97;;
14722;SDS011;7452;55.594;12.986;2022-07-15T07:23:39;10.83;;;2.33;;
14722;SDS011;7452;55.594;12.986;2022-07-15T07:26:06;13.03;;;2.80;;
14722;SDS011;7452;55.594;12.986;2022-07-15T07:28:35;8.67;;;2.60;;
14722;SDS011;7452;55.594;12.986;2022-07-15T07:31:03;14.83;;;2.50;;
14722;SDS011;7452;55.594;12.986;2022-07-15T07:33:31;9.67;;;2.33;;
14722;SDS011;7452;55.594;12.986;2022-07-15T07:35:59;9.47;;;1.90;;
14722;SDS011;7452;55.594;12.986;2022-07-15T07:38:26;10.00;;;2.37;;
14722;SDS011;7452;55.594;12.986;2022-07-15T07:40:54;9.10;;;2.03;;
14722;SDS011;7452;55.594;12.986;2022-07-15T07:43:21;15.53;;;2.47;;
14722;SDS011;7452;55.594;12.986;2022-07-15T07:45:48;7.00;;;2.10;;
14722;SDS011;7452;55.594;12.986;2022-07-15T07:48:15;8.10;;;2.37;;
14722;SDS011;7452;55.594;12.986;2022-07-15T07:50:43;9.23;;;2.10;;
14722;SDS011;7452;55.594;12.986;2022-07-15T07:53:12;8.97;;;2.10;;
14722;SDS011;7452;55.594;12.986;2022-07-15T07:55:39;8.97;;;2.30;;
14722;SDS011;7452;55.594;12.986;2022-07-15T07:58:07;14.83;;;2.73;;
14722;SDS011;7452;55.594;12.986;2022-07-15T08:00:34;7.80;;;2.03;;
14722;SDS011;7452;55.594;12.986;2022-07-15T08:03:01;10.63;;;2.20;;
14722;SDS011;7452;55.594;12.986;2022-07-15T08:05:28;9.10;;;2.10;;
14722;SDS011;7452;55.594;12.986;2022-07-15T08:08:05;8.93;;;2.03;;
14722;SDS011;7452;55.594;12.986;2022-07-15T08:10:35;7.50;;;2.37;;
14722;SDS011;7452;55.594;12.986;2022-07-15T08:13:02;10.03;;;2.20;;
14722;SDS011;7452;55.594;12.986;2022-07-15T08:15:29;9.07;;;2.30;;
14722;SDS011;7452;55.594;12.986;2022-07-15T08:17:56;9.40;;;2.50;;
14722;SDS011;7452;55.594;12.986;2022-07-15T08:20:23;11.73;;;2.27;;
14722;SDS011;7452;55.594;12.986;2022-07-15T08:22:50;8.97;;;2.53;;
14722;SDS011;7452;55.594;12.986;2022-07-15T08:25:23;9.00;;;2.20;;
14722;SDS011;7452;55.594;12.986;2022-07-15T08:27:52;5.93;;;1.60;;
14722;SDS011;7452;55.594;12.986;2022-07-15T08:30:19;5.50;;;1.60;;
14722;SDS011;7452;55.594;12.986;2022-07-15T08:32:46;7.03;;;2.10;;
14722;SDS011;7452;55.594;12.986;2022-07-15T08:35:13;7.90;;;1.90;;
14722;SDS011;7452;55.594;12.986;2022-07-15T08:37:40;6.70;;;1.93;;
14722;SDS011;7452;55.594;12.986;2022-07-15T08:40:07;11.40;;;2.17;;
14722;SDS011;7452;55.594;12.986;2022-07-15T08:42:36;6.00;;;2.07;;
14722;SDS011;7452;55.594;12.986;2022-07-15T08:45:09;8.87;;;2.30;;
14722;SDS011;7452;55.594;12.986;2022-07-15T08:47:37;7.93;;;1.73;;
14722;SDS011;7452;55.594;12.986;2022-07-15T08:50:06;7.03;;;1.73;;
14722;SDS011;7452;55.594;12.986;2022-07-15T08:52:36;6.53;;;1.60;;
14722;SDS011;7452;55.594;12.986;2022-07-15T08:55:04;9.77;;;1.90;;
14722;SDS011;7452;55.594;12.986;2022-07-15T08:57:32;8.37;;;2.23;;
14722;SDS011;7452;55.594;12.986;2022-07-15T09:00:00;8.47;;;2.00;;
14722;SDS011;7452;55.594;12.986;2022-07-15T09:02:28;4.87;;;2.00;;
14722;SDS011;7452;55.594;12.986;2022-07-15T09:07:50;5.43;;;1.97;;
14722;SDS011;7452;55.594;12.986;2022-07-15T09:10:22;7.70;;;1.97;;
14722;SDS011;7452;55.594;12.986;2022-07-15T09:12:51;8.30;;;1.93;;
14722;SDS011;7452;55.594;12.986;2022-07-15T09:15:28;7.83;;;1.70;;
14722;SDS011;7452;55.594;12.986;2022-07-15T09:18:05;6.13;;;1.53;;
14722;SDS011;7452;55.594;12.986;2022-07-15T09:20:34;6.50;;;2.07;;
14722;SDS011;7452;55.594;12.986;2022-07-15T09:23:01;7.03;;;1.97;;
14722;SDS011;7452;55.594;12.986;2022-07-15T09:25:30;9.23;;;1.83;;
14722;SDS011;7452;55.594;12.986;2022-07-15T09:27:59;6.60;;;1.60;;
14722;SDS011;7452;55.594;12.986;2022-07-15T09:30:28;6.10;;;1.87;;
14722;SDS011;7452;55.594;12.986;2022-07-15T09:33:15;6.57;;;1.60;;
14722;SDS011;7452;55.594;12.986;2022-07-15T09:36:10;5.43;;;1.63;;
14722;SDS011;7452;55.594;12.986;2022-07-15T09:38:40;9.80;;;1.67;;
14722;SDS011;7452;55.594;12.986;2022-07-15T09:41:19;5.93;;;1.93;;
14722;SDS011;7452;55.594;12.986;2022-07-15T09:43:52;5.83;;;2.00;;
14722;SDS011;7452;55.594;12.986;2022-07-15T09:46:22;4.40;;;1.47;;
14722;SDS011;7452;55.594;12.986;2022-07-15T09:48:51;3.60;;;1.43;;
14722;SDS011;7452;55.594;12.986;2022-07-15T09:51:19;4.57;;;1.43;;
14722;SDS011;7452;55.594;12.986;2022-07-15T09:53:47;6.83;;;2.07;;
14722;SDS011;7452;55.594;12.986;2022-07-15T09:56:16;6.33;;;1.53;;
14722;SDS011;7452;55.594;12.986;2022-07-15T09:58:46;6.80;;;1.80;;
14722;SDS011;7452;55.594;12.986;2022-07-15T10:01:13;4.40;;;1.37;;
14722;SDS011;7452;55.594;12.986;2022-07-15T10:03:41;7.40;;;1.67;;
14722;SDS011;7452;55.594;12.986;2022-07-15T10:06:10;8.03;;;1.20;;
14722;SDS011;7452;55.594;12.986;2022-07-15T10:08:40;5.20;;;1.40;;
14722;SDS011;7452;55.594;12.986;2022-07-15T10:11:12;6.70;;;1.70;;
14722;SDS011;7452;55.594;12.986;2022-07-15T10:13:44;7.17;;;1.70;;
14722;SDS011;7452;55.594;12.986;2022-07-15T10:16:43;5.07;;;1.10;;
14722;SDS011;7452;55.594;12.986;2022-07-15T10:19:30;5.27;;;1.40;;
14722;SDS011;7452;55.594;12.986;2022-07-15T10:22:22;7.13;;;1.60;;
14722;SDS011;7452;55.594;12.986;2022-07-15T10:25:00;4.23;;;1.33;;
14722;SDS011;7452;55.594;12.986;2022-07-15T10:27:43;3.70;;;1.23;;
14722;SDS011;7452;55.594;12.986;2022-07-15T10:30:18;5.50;;;1.50;;
14722;SDS011;7452;55.594;12.986;2022-07-15T10:35:39;6.30;;;1.52;;
14722;SDS011;7452;55.594;12.986;2022-07-15T10:38:21;4.85;;;1.20;;
14722;SDS011;7452;55.594;12.986;2022-07-15T10:40:57;4.47;;;1.38;;
14722;SDS011;7452;55.594;12.986;2022-07-15T10:43:42;6.18;;;1.40;;
14722;SDS011;7452;55.594;12.986;2022-07-15T10:46:22;2.53;;;1.20;;
14722;SDS011;7452;55.594;12.986;2022-07-15T10:48:51;3.78;;;1.38;;
14722;SDS011;7452;55.594;12.986;2022-07-15T10:51:43;3.72;;;1.13;;
14722;SDS011;7452;55.594;12.986;2022-07-15T11:00:25;3.95;;;1.10;;
14722;SDS011;7452;55.594;12.986;2022-07-15T11:03:00;4.40;;;1.38;;
14722;SDS011;7452;55.594;12.986;2022-07-15T11:05:32;6.82;;;1.70;;
14722;SDS011;7452;55.594;12.986;2022-07-15T11:08:00;2.90;;;1.00;;
14722;SDS011;7452;55.594;12.986;2022-07-15T11:14:41;7.03;;;1.25;;
14722;SDS011;7452;55.594;12.986;2022-07-15T11:17:10;4.13;;;1.30;;
14722;SDS011;7452;55.594;12.986;2022-07-15T11:19:38;4.03;;;1.20;;
14722;SDS011;7452;55.594;12.986;2022-07-15T11:22:07;4.80;;;1.50;;
14722;SDS011;7452;55.594;12.986;2022-07-15T11:24:35;5.68;;;1.15;;
14722;SDS011;7452;55.594;12.986;2022-07-15T11:27:03;2.28;;;1.10;;
14722;SDS011;7452;55.594;12.986;2022-07-15T11:29:45;6.38;;;1.48;;
14722;SDS011;7452;55.594;12.986;2022-07-15T11:32:14;3.22;;;1.00;;
14722;SDS011;7452;55.594;12.986;2022-07-15T11:34:43;4.28;;;1.13;;
14722;SDS011;7452;55.594;12.986;2022-07-15T11:37:11;7.78;;;1.65;;
14722;SDS011;7452;55.594;12.986;2022-07-15T11:39:44;3.50;;;1.17;;
14722;SDS011;7452;55.594;12.986;2022-07-15T11:42:17;1.98;;;0.82;;
14722;SDS011;7452;55.594;12.986;2022-07-15T11:45:04;2.83;;;1.48;;
14722;SDS011;7452;55.594;12.986;2022-07-15T11:47:32;3.47;;;1.10;;
14722;SDS011;7452;55.594;12.986;2022-07-15T11:50:00;3.47;;;0.98;;
14722;SDS011;7452;55.594;12.986;2022-07-15T11:52:28;5.22;;;1.40;;
14722;SDS011;7452;55.594;12.986;2022-07-15T11:54:54;4.45;;;1.42;;
14722;SDS011;7452;55.594;12.986;2022-07-15T11:57:22;3.85;;;1.02;;
14722;SDS011;7452;55.594;12.986;2022-07-15T11:59:50;1.83;;;1.02;;
14722;SDS011;7452;55.594;12.986;2022-07-15T12:02:22;5.72;;;1.05;;
14722;SDS011;7452;55.594;12.986;2022-07-15T12:04:50;4.18;;;1.00;;
14722;SDS011;7452;55.594;12.986;2022-07-15T12:07:19;3.20;;;1.20;;
14722;SDS011;7452;55.594;12.986;2022-07-15T12:09:46;2.55;;;1.00;;
14722;SDS011;7452;55.594;12.986;2022-07-15T12:12:16;4.10;;;0.93;;
14722;SDS011;7452;55.594;12.986;2022-07-15T12:14:45;3.55;;;1.05;;
14722;SDS011;7452;55.594;12.986;2022-07-15T12:17:13;5.90;;;1.10;;
14722;SDS011;7452;55.594;12.986;2022-07-15T12:19:45;7.68;;;1.05;;
14722;SDS011;7452;55.594;12.986;2022-07-15T12:22:13;3.47;;;0.80;;
14722;SDS011;7452;55.594;12.986;2022-07-15T12:24:41;3.88;;;1.05;;
14722;SDS011;7452;55.594;12.986;2022-07-15T12:27:10;3.72;;;0.98;;
14722;SDS011;7452;55.594;12.986;2022-07-15T12:29:38;4.30;;;1.40;;
14722;SDS011;7452;55.594;12.986;2022-07-15T12:32:06;5.28;;;1.10;;
14722;SDS011;7452;55.594;12.986;2022-07-15T12:37:24;3.13;;;0.80;;
14722;SDS011;7452;55.594;12.986;2022-07-15T12:39:53;3.58;;;1.00;;
14722;SDS011;7452;55.594;12.986;2022-07-15T12:42:24;3.25;;;1.00;;
14722;SDS011;7452;55.594;12.986;2022-07-15T12:45:05;3.63;;;1.15;;
14722;SDS011;7452;55.594;12.986;2022-07-15T12:47:34;2.15;;;1.13;;
14722;SDS011;7452;55.594;12.986;2022-07-15T12:50:03;3.13;;;1.02;;
14722;SDS011;7452;55.594;12.986;2022-07-15T12:52:32;6.05;;;1.13;;
14722;SDS011;7452;55.594;12.986;2022-07-15T12:55:11;3.30;;;0.70;;
14722;SDS011;7452;55.594;12.986;2022-07-15T12:57:39;4.65;;;1.30;;
14722;SDS011;7452;55.594;12.986;2022-07-15T13:00:10;4.18;;;0.77;;
14722;SDS011;7452;55.594;12.986;2022-07-15T13:02:54;2.47;;;0.80;;
14722;SDS011;7452;55.594;12.986;2022-07-15T13:05:24;2.13;;;0.80;;
14722;SDS011;7452;55.594;12.986;2022-07-15T13:07:53;4.70;;;0.90;;
14722;SDS011;7452;55.594;12.986;2022-07-15T13:10:20;1.73;;;0.80;;
14722;SDS011;7452;55.594;12.986;2022-07-15T13:12:47;2.70;;;0.80;;
14722;SDS011;7452;55.594;12.986;2022-07-15T13:15:14;3.85;;;0.98;;
14722;SDS011;7452;55.594;12.986;2022-07-15T13:17:41;3.55;;;0.90;;
14722;SDS011;7452;55.594;12.986;2022-07-15T13:20:08;3.03;;;0.95;;
14722;SDS011;7452;55.594;12.986;2022-07-15T13:22:38;2.67;;;0.80;;
14722;SDS011;7452;55.594;12.986;2022-07-15T13:25:06;1.58;;;0.70;;
14722;SDS011;7452;55.594;12.986;2022-07-15T13:27:34;4.13;;;1.00;;
14722;SDS011;7452;55.594;12.986;2022-07-15T13:30:02;3.35;;;0.80;;
14722;SDS011;7452;55.594;12.986;2022-07-15T13:32:30;4.38;;;1.00;;
14722;SDS011;7452;55.594;12.986;2022-07-15T13:34:57;3.95;;;2.10;;
14722;SDS011;7452;55.594;12.986;2022-07-15T13:37:24;2.83;;;0.82;;
14722;SDS011;7452;55.594;12.986;2022-07-15T13:39:52;3.47;;;0.80;;
14722;SDS011;7452;55.594;12.986;2022-07-15T13:42:19;5.00;;;1.13;;
14722;SDS011;7452;55.594;12.986;2022-07-15T13:44:49;2.80;;;0.80;;
14722;SDS011;7452;55.594;12.986;2022-07-15T13:47:16;3.08;;;1.00;;
14722;SDS011;7452;55.594;12.986;2022-07-15T13:49:43;1.92;;;0.68;;
14722;SDS011;7452;55.594;12.986;2022-07-15T13:52:28;4.13;;;0.80;;
14722;SDS011;7452;55.594;12.986;2022-07-15T13:54:56;4.28;;;0.70;;
14722;SDS011;7452;55.594;12.986;2022-07-15T13:57:23;6.95;;;0.77;;
14722;SDS011;7452;55.594;12.986;2022-07-15T13:59:50;4.20;;;1.00;;
14722;SDS011;7452;55.594;12.986;2022-07-15T14:02:17;3.92;;;1.15;;
14722;SDS011;7452;55.594;12.986;2022-07-15T14:04:44;2.53;;;0.80;;
14722;SDS011;7452;55.594;12.986;2022-07-15T14:07:11;3.55;;;0.65;;
14722;SDS011;7452;55.594;12.986;2022-07-15T14:09:38;3.90;;;0.75;;
14722;SDS011;7452;55.594;12.986;2022-07-15T14:12:06;3.90;;;1.00;;
14722;SDS011;7452;55.594;12.986;2022-07-15T14:14:33;3.53;;;0.95;;
14722;SDS011;7452;55.594;12.986;2022-07-15T14:17:00;4.15;;;0.88;;
14722;SDS011;7452;55.594;12.986;2022-07-15T14:19:27;3.40;;;0.52;;
14722;SDS011;7452;55.594;12.986;2022-07-15T14:21:54;1.10;;;0.50;;
14722;SDS011;7452;55.594;12.986;2022-07-15T14:24:21;2.10;;;0.60;;
14722;SDS011;7452;55.594;12.986;2022-07-15T14:26:48;3.38;;;0.77;;
14722;SDS011;7452;55.594;12.986;2022-07-15T14:29:16;3.45;;;0.80;;
14722;SDS011;7452;55.594;12.986;2022-07-15T14:31:44;2.70;;;1.70;;
14722;SDS011;7452;55.594;12.986;2022-07-15T14:34:11;2.20;;;0.60;;
14722;SDS011;7452;55.594;12.986;2022-07-15T14:36:37;1.60;;;0.60;;
14722;SDS011;7452;55.594;12.986;2022-07-15T14:39:06;1.30;;;0.57;;
14722;SDS011;7452;55.594;12.986;2022-07-15T14:41:33;1.65;;;0.60;;
14722;SDS011;7452;55.594;12.986;2022-07-15T14:44:01;3.60;;;0.70;;
14722;SDS011;7452;55.594;12.986;2022-07-15T14:46:29;1.90;;;0.50;;
14722;SDS011;7452;55.594;12.986;2022-07-15T14:48:56;2.33;;;0.60;;
14722;SDS011;7452;55.594;12.986;2022-07-15T14:51:24;1.73;;;0.68;;
14722;SDS011;7452;55.594;12.986;2022-07-15T14:53:50;2.58;;;0.47;;
14722;SDS011;7452;55.594;12.986;2022-07-15T14:56:17;1.90;;;0.70;;
14722;SDS011;7452;55.594;12.986;2022-07-15T14:58:44;3.78;;;0.60;;
14722;SDS011;7452;55.594;12.986;2022-07-15T15:01:11;2.72;;;1.60;;
14722;SDS011;7452;55.594;12.986;2022-07-15T15:03:40;3.00;;;0.70;;
14722;SDS011;7452;55.594;12.986;2022-07-15T15:06:07;4.45;;;0.63;;
14722;SDS011;7452;55.594;12.986;2022-07-15T15:08:33;3.65;;;1.25;;
14722;SDS011;7452;55.594;12.986;2022-07-15T15:11:00;3.38;;;0.90;;
14722;SDS011;7452;55.594;12.986;2022-07-15T15:13:30;2.67;;;0.80;;